Aviation Digital Data Service (ADDS)

Output produced by METARs form (0615 UTC 25 July 2016)
found at http://aviationweather.gov/adds/metars/
 
KMFD 250532Z 2506/2606 15006KT P6SM SKC 
     FM250900 21005KT 5SM BR BKN250 
     FM251300 24006KT P6SM VCSH BKN045 OVC100 
     FM251800 25008KT P6SM SCT035 BKN100 
     FM260000 26005KT P6SM SKC